Time;durP1;ratioP1;P1;durP2;ratioP2;P2;SDS_P1;SDS_P2;PMS_P1;PMS_P2;Temp;Humidity;BMP_temperature;BMP_pressure;BME280_temperature;BME280_humidity;BME280_pressure;Samples;Min_cycle;Max_cycle;Signal;HPM_P1;HPM_P2
2023/04/11 00:00:46;;;;;;;3.53;1.45;;;14.20;1.00;;;;;;7391416;19;20042;-73
2023/04/11 00:03:16;;;;;;;2.97;1.65;;;14.20;1.00;;;;;;7371736;19;20002;-73
2023/04/11 00:05:46;;;;;;;3.05;1.50;;;14.20;1.00;;;;;;7371206;19;20371;-72
2023/04/11 00:08:16;;;;;;;1.77;1.40;;;14.20;1.00;;;;;;7370323;19;20014;-72
2023/04/11 00:10:45;;;;;;;3.55;1.50;;;14.10;1.00;;;;;;7369321;19;20089;-72
2023/04/11 00:13:18;;;;;;;2.33;1.27;;;14.20;1.00;;;;;;7372470;19;20028;-73
2023/04/11 00:15:52;;;;;;;3.47;1.52;;;14.20;1.00;;;;;;7393807;19;20015;-72
2023/04/11 00:18:24;;;;;;;3.92;1.77;;;14.10;1.00;;;;;;7371310;19;20014;-72
2023/04/11 00:20:54;;;;;;;2.85;1.50;;;14.10;1.00;;;;;;7368664;19;20080;-72
2023/04/11 00:23:24;;;;;;;6.30;1.75;;;14.20;1.00;;;;;;7370202;19;20013;-72
2023/04/11 00:25:54;;;;;;;2.28;1.08;;;14.20;1.00;;;;;;7369263;19;20025;-72
2023/04/11 00:28:24;;;;;;;4.68;1.25;;;14.20;1.00;;;;;;7370332;19;20609;-71
2023/04/11 00:30:56;;;;;;;4.40;1.60;;;14.20;1.00;;;;;;7391208;19;20025;-71
2023/04/11 00:33:26;;;;;;;2.63;1.50;;;14.30;1.00;;;;;;7371077;19;20078;-72
2023/04/11 00:35:56;;;;;;;6.53;1.70;;;14.30;1.00;;;;;;7369286;19;20010;-72
2023/04/11 00:38:29;;;;;;;4.28;1.83;;;14.30;1.00;;;;;;7369908;19;20014;-72
2023/04/11 00:40:59;;;;;;;1.85;1.30;;;14.30;1.00;;;;;;7368782;19;20014;-73
2023/04/11 00:43:29;;;;;;;3.35;1.70;;;14.30;1.00;;;;;;7370261;19;20095;-73
2023/04/11 00:46:01;;;;;;;6.43;1.50;;;14.20;1.00;;;;;;7391574;19;20054;-72
2023/04/11 00:48:32;;;;;;;2.28;1.40;;;14.20;1.00;;;;;;7370235;19;20462;-72
2023/04/11 00:51:03;;;;;;;2.47;1.52;;;14.20;1.00;;;;;;7367836;19;20355;-72
2023/04/11 00:53:33;;;;;;;4.30;1.40;;;14.20;1.00;;;;;;7369007;19;20041;-72
2023/04/11 00:56:04;;;;;;;3.75;1.52;;;14.20;1.00;;;;;;7369488;19;20061;-72
2023/04/11 00:58:36;;;;;;;3.08;1.67;;;14.10;1.00;;;;;;7369556;19;20015;-72
2023/04/11 01:01:10;;;;;;;4.55;1.33;;;14.10;1.00;;;;;;7380318;19;20010;-72
2023/04/11 01:03:41;;;;;;;2.78;1.65;;;14.20;1.00;;;;;;7391121;19;20031;-72
2023/04/11 01:06:14;;;;;;;2.20;1.30;;;14.10;1.00;;;;;;7368912;19;20007;-73
2023/04/11 01:08:45;;;;;;;5.35;1.50;;;14.10;1.00;;;;;;7368848;19;20022;-72
2023/04/11 01:11:18;;;;;;;2.55;1.60;;;14.00;1.00;;;;;;7369302;19;20014;-72
2023/04/11 01:13:49;;;;;;;2.78;1.67;;;13.90;1.00;;;;;;7368319;19;20010;-72
2023/04/11 01:16:21;;;;;;;2.17;1.42;;;13.90;1.00;;;;;;7369014;19;20014;-72
2023/04/11 01:18:51;;;;;;;3.00;1.60;;;13.80;1.00;;;;;;7390627;19;20015;-73
2023/04/11 01:21:23;;;;;;;4.25;1.70;;;13.70;1.00;;;;;;7368983;19;20060;-73
2023/04/11 01:23:57;;;;;;;3.40;1.50;;;13.60;1.00;;;;;;7368151;19;20007;-71
2023/04/11 01:26:27;;;;;;;6.53;1.55;;;13.50;1.00;;;;;;7367525;19;20075;-71
2023/04/11 01:28:57;;;;;;;2.20;1.45;;;13.50;1.00;;;;;;7368421;19;20612;-72
2023/04/11 01:31:26;;;;;;;2.90;1.80;;;13.40;1.00;;;;;;7368815;19;20015;-72
2023/04/11 01:33:57;;;;;;;3.25;1.55;;;13.40;1.00;;;;;;7390840;19;20470;-72
2023/04/11 01:36:27;;;;;;;4.18;1.60;;;13.10;1.00;;;;;;7368170;19;20118;-72
2023/04/11 01:39:00;;;;;;;4.30;2.17;;;12.90;1.00;;;;;;7368091;19;20021;-72
2023/04/11 01:41:32;;;;;;;3.28;1.90;;;12.60;1.00;;;;;;7366024;19;20517;-72
2023/04/11 01:44:02;;;;;;;4.75;2.40;;;12.40;1.00;;;;;;7369282;19;20011;-72
2023/04/11 01:46:32;;;;;;;3.35;1.88;;;12.20;1.00;;;;;;7368254;19;20028;-73
2023/04/11 01:49:02;;;;;;;5.20;2.00;;;12.00;1.00;;;;;;7389504;19;20686;-73
2023/04/11 01:51:32;;;;;;;4.30;1.90;;;11.90;1.00;;;;;;7368170;19;20014;-72
2023/04/11 01:54:05;;;;;;;4.47;2.20;;;11.70;1.00;;;;;;7366820;19;20006;-74
2023/04/11 01:56:35;;;;;;;2.97;2.13;;;11.50;2.60;;;;;;7367289;19;20039;-73
2023/04/11 01:59:05;;;;;;;5.93;2.78;;;11.30;7.80;;;;;;7368172;19;20529;-72
2023/04/11 02:01:35;;;;;;;3.95;2.92;;;11.40;11.50;;;;;;7367777;19;20017;-73
2023/04/11 02:04:05;;;;;;;6.00;2.70;;;11.30;13.20;;;;;;7388874;19;20018;-73
2023/04/11 02:06:35;;;;;;;3.25;2.22;;;11.10;19.00;;;;;;7389641;19;20014;-73
2023/04/11 02:09:08;;;;;;;3.58;2.53;;;10.90;22.60;;;;;;7366989;19;20034;-73
2023/04/11 02:11:38;;;;;;;3.63;2.80;;;10.70;26.00;;;;;;7367792;19;20018;-72
2023/04/11 02:14:08;;;;;;;6.80;3.13;;;10.60;28.60;;;;;;7365363;19;20457;-73
2023/04/11 02:16:51;;;;;;;3.38;2.50;;;10.60;31.20;;;;;;7368355;19;20026;-72
2023/04/11 02:19:24;;;;;;;3.72;2.88;;;10.60;32.20;;;;;;7365821;19;20329;-72
2023/04/11 02:21:55;;;;;;;6.00;3.10;;;10.60;33.10;;;;;;7390779;19;20384;-71
2023/04/11 02:24:29;;;;;;;4.70;3.15;;;10.60;33.30;;;;;;7366704;19;20559;-71
2023/04/11 02:26:59;;;;;;;3.97;2.72;;;10.60;34.50;;;;;;7365241;19;20034;-71
2023/04/11 02:29:29;;;;;;;5.05;2.83;;;10.60;36.10;;;;;;7365428;19;20023;-72
2023/04/11 02:31:59;;;;;;;3.00;2.50;;;10.60;36.10;;;;;;7367967;19;20471;-71
2023/04/11 02:34:29;;;;;;;2.83;2.10;;;10.60;37.50;;;;;;7366245;19;20019;-72
2023/04/11 02:36:59;;;;;;;3.72;2.45;;;10.50;37.90;;;;;;7389194;19;20018;-72
2023/04/11 02:39:32;;;;;;;4.13;2.20;;;10.50;39.60;;;;;;7367141;19;20355;-71
2023/04/11 02:42:02;;;;;;;2.85;1.95;;;10.50;39.50;;;;;;7368523;19;20010;-71
2023/04/11 02:44:31;;;;;;;4.50;1.90;;;10.40;40.70;;;;;;7368628;19;20002;-70
2023/04/11 02:47:01;;;;;;;3.35;1.67;;;10.40;40.90;;;;;;7365247;19;20478;-71
2023/04/11 02:49:31;;;;;;;6.85;2.15;;;10.30;40.90;;;;;;7364891;19;20045;-71
2023/04/11 02:52:01;;;;;;;3.40;1.77;;;10.30;41.60;;;;;;7403912;19;20011;-70
2023/04/11 02:54:34;;;;;;;3.33;1.77;;;10.20;41.80;;;;;;7405979;19;20003;-70
2023/04/11 02:57:04;;;;;;;2.53;1.52;;;10.10;41.20;;;;;;7406859;19;20062;-71
2023/04/11 02:59:33;;;;;;;4.57;1.92;;;10.10;41.30;;;;;;7384046;19;20017;-70
2023/04/11 03:02:03;;;;;;;2.38;1.40;;;10.10;41.10;;;;;;7374866;19;20039;-70
2023/04/11 03:04:33;;;;;;;1.95;1.20;;;10.10;40.10;;;;;;7374133;19;20082;-70
2023/04/11 03:07:03;;;;;;;2.53;1.30;;;10.00;39.70;;;;;;7395057;19;20011;-69
2023/04/11 03:09:36;;;;;;;1.63;1.23;;;9.90;39.40;;;;;;7370917;19;20070;-69
2023/04/11 03:12:06;;;;;;;3.63;1.58;;;9.90;41.20;;;;;;7372876;19;20478;-69
2023/04/11 03:14:36;;;;;;;3.08;1.40;;;10.00;40.60;;;;;;7371768;19;20006;-70
2023/04/11 03:17:05;;;;;;;3.25;1.45;;;10.00;40.50;;;;;;7373303;19;20014;-69
2023/04/11 03:19:35;;;;;;;3.20;1.27;;;10.00;41.30;;;;;;7371847;19;20067;-70
2023/04/11 03:22:06;;;;;;;2.25;1.30;;;9.90;41.90;;;;;;7395111;19;20029;-71
2023/04/11 03:24:39;;;;;;;3.10;1.20;;;9.90;42.20;;;;;;7394541;19;20017;-70
2023/04/11 03:27:09;;;;;;;2.67;1.50;;;9.80;42.00;;;;;;7370560;19;20063;-70
2023/04/11 03:29:39;;;;;;;1.83;1.27;;;9.80;42.20;;;;;;7370971;19;20020;-70
2023/04/11 03:32:09;;;;;;;2.38;1.40;;;9.80;43.10;;;;;;7373803;19;20010;-70
2023/04/11 03:34:39;;;;;;;4.20;1.40;;;9.90;44.10;;;;;;7371963;19;20010;-70
2023/04/11 03:37:09;;;;;;;3.22;1.48;;;9.80;42.70;;;;;;7377157;19;20038;-70
2023/04/11 03:39:45;;;;;;;5.05;1.65;;;9.80;43.70;;;;;;7392543;19;20022;-70
2023/04/11 03:42:15;;;;;;;2.83;1.42;;;9.80;43.80;;;;;;7372725;19;20114;-71
2023/04/11 03:44:44;;;;;;;2.88;1.17;;;9.80;44.80;;;;;;7372075;19;20022;-70
2023/04/11 03:47:15;;;;;;;3.92;1.30;;;9.50;41.40;;;;;;7370260;19;20486;-69
2023/04/11 03:49:44;;;;;;;2.60;1.15;;;9.40;37.50;;;;;;7370772;19;20417;-70
2023/04/11 03:52:16;;;;;;;3.35;1.10;;;9.30;38.00;;;;;;7373185;19;20078;-69
2023/04/11 03:54:48;;;;;;;2.45;1.10;;;9.20;35.40;;;;;;7393836;19;20022;-70
2023/04/11 03:57:18;;;;;;;4.10;1.20;;;9.20;37.90;;;;;;7371031;19;20570;-70
2023/04/11 03:59:48;;;;;;;6.05;1.50;;;9.20;37.30;;;;;;7370270;19;20383;-71
2023/04/11 04:02:18;;;;;;;4.95;1.30;;;9.30;37.50;;;;;;7372013;19;20717;-70
2023/04/11 04:04:54;;;;;;;4.88;1.10;;;9.20;37.30;;;;;;7371254;19;20031;-71
2023/04/11 04:07:23;;;;;;;4.40;1.30;;;9.30;38.10;;;;;;7369829;19;20010;-71
2023/04/11 04:09:56;;;;;;;1.25;0.82;;;9.10;33.80;;;;;;7392438;19;20018;-71
2023/04/11 04:12:26;;;;;;;5.28;1.40;;;9.10;36.70;;;;;;7371805;19;20010;-70
2023/04/11 04:14:56;;;;;;;4.15;1.63;;;9.10;36.20;;;;;;7370404;19;20011;-71
2023/04/11 04:17:26;;;;;;;7.57;1.60;;;9.00;35.30;;;;;;7369156;19;20391;-70
2023/04/11 04:19:56;;;;;;;5.65;1.33;;;9.00;37.00;;;;;;7369444;19;20012;-71
2023/04/11 04:22:26;;;;;;;8.88;2.20;;;9.00;37.20;;;;;;7371203;19;20018;-71
2023/04/11 04:24:59;;;;;;;4.75;1.70;;;9.10;39.30;;;;;;7392530;19;20504;-71
2023/04/11 04:27:29;;;;;;;7.25;1.90;;;9.00;38.20;;;;;;7369345;19;20367;-70
2023/04/11 04:29:59;;;;;;;6.07;1.80;;;9.10;40.80;;;;;;7368534;19;20024;-71
2023/04/11 04:32:33;;;;;;;4.15;1.80;;;9.00;40.30;;;;;;7370959;19;20003;-70
2023/04/11 04:35:03;;;;;;;6.10;2.00;;;9.00;41.10;;;;;;7369771;19;20015;-70
2023/04/11 04:37:38;;;;;;;6.10;1.70;;;9.10;42.80;;;;;;7369394;19;20010;-70
2023/04/11 04:40:12;;;;;;;2.88;1.77;;;9.10;42.10;;;;;;7374908;19;20018;-70
2023/04/11 04:42:42;;;;;;;4.97;1.67;;;9.00;41.50;;;;;;7392931;19;20011;-71
2023/04/11 04:45:12;;;;;;;5.50;1.55;;;9.10;41.30;;;;;;7370657;19;20011;-70
2023/04/11 04:47:43;;;;;;;6.18;1.73;;;9.10;40.80;;;;;;7368510;19;20517;-70
2023/04/11 04:50:13;;;;;;;4.13;1.40;;;9.00;40.00;;;;;;7368176;19;20090;-70
2023/04/11 04:52:42;;;;;;;3.40;1.55;;;9.00;39.80;;;;;;7369829;19;20021;-71
2023/04/11 04:55:16;;;;;;;3.90;1.35;;;9.10;38.30;;;;;;7370367;19;20011;-70
2023/04/11 04:57:46;;;;;;;6.38;1.20;;;9.00;37.20;;;;;;7391432;19;20014;-71
2023/04/11 05:00:16;;;;;;;6.55;1.20;;;9.00;35.50;;;;;;7367509;19;20392;-70
2023/04/11 05:02:46;;;;;;;3.33;1.00;;;8.90;33.00;;;;;;7369590;19;20015;-70
2023/04/11 05:05:17;;;;;;;5.72;1.40;;;8.90;34.80;;;;;;7370372;19;20018;-69
2023/04/11 05:07:47;;;;;;;3.25;1.20;;;8.90;34.10;;;;;;7368516;19;20411;-69
2023/04/11 05:10:19;;;;;;;3.50;1.20;;;8.90;34.90;;;;;;7368352;19;20038;-71
2023/04/11 05:12:51;;;;;;;1.77;0.90;;;8.90;32.70;;;;;;7391958;19;20018;-69
2023/04/11 05:15:22;;;;;;;3.65;1.00;;;8.80;29.30;;;;;;7367308;19;20017;-70
2023/04/11 05:17:52;;;;;;;2.25;0.80;;;8.90;30.30;;;;;;7367766;19;20017;-71
2023/04/11 05:20:23;;;;;;;4.10;1.02;;;8.80;26.00;;;;;;7367468;19;20518;-70
2023/04/11 05:22:53;;;;;;;4.05;0.75;;;8.80;24.30;;;;;;7369124;19;20525;-70
2023/04/11 05:25:25;;;;;;;4.60;0.88;;;8.60;21.90;;;;;;7367926;19;20724;-70
2023/04/11 05:27:55;;;;;;;5.03;0.90;;;8.60;21.10;;;;;;7390193;19;20020;-69
2023/04/11 05:30:25;;;;;;;1.63;0.77;;;8.60;22.20;;;;;;7365491;19;20471;-70
2023/04/11 05:32:55;;;;;;;2.90;1.10;;;8.50;20.10;;;;;;7368479;19;20053;-69
2023/04/11 05:35:25;;;;;;;1.65;0.80;;;8.50;19.70;;;;;;7367325;19;20101;-70
2023/04/11 05:37:57;;;;;;;2.67;0.90;;;8.60;18.40;;;;;;7367925;19;20094;-70
2023/04/11 05:40:29;;;;;;;2.67;0.98;;;8.60;18.90;;;;;;7367509;19;20016;-69
2023/04/11 05:42:59;;;;;;;1.25;0.70;;;8.60;20.40;;;;;;7391512;19;20022;-71
2023/04/11 05:45:29;;;;;;;1.50;0.90;;;8.60;18.40;;;;;;7367456;19;20013;-70
2023/04/11 05:47:59;;;;;;;2.38;0.63;;;8.50;16.30;;;;;;7367608;19;20011;-69
2023/04/11 05:50:29;;;;;;;4.75;0.93;;;8.60;15.80;;;;;;7365524;19;20007;-70
2023/04/11 05:52:59;;;;;;;4.00;1.20;;;8.60;14.90;;;;;;7367777;19;20022;-70
2023/04/11 05:55:31;;;;;;;5.72;1.10;;;8.60;14.90;;;;;;7366952;19;20845;-70
2023/04/11 05:58:01;;;;;;;3.60;1.00;;;8.70;14.90;;;;;;7389726;19;20025;-72
2023/04/11 06:00:31;;;;;;;3.28;0.90;;;8.70;15.80;;;;;;7365635;19;20407;-70
2023/04/11 06:03:01;;;;;;;4.80;0.98;;;8.70;13.40;;;;;;7367295;19;20026;-69
2023/04/11 06:05:31;;;;;;;2.53;0.88;;;8.60;12.80;;;;;;7365407;19;20077;-69
2023/04/11 06:08:02;;;;;;;2.22;0.98;;;8.70;13.10;;;;;;7367998;19;20025;-70
2023/04/11 06:10:34;;;;;;;2.30;0.90;;;8.70;14.40;;;;;;7365138;19;20006;-70
2023/04/11 06:13:05;;;;;;;3.75;1.00;;;8.70;13.30;;;;;;7389950;19;20018;-70
2023/04/11 06:15:34;;;;;;;4.35;1.58;;;8.70;11.20;;;;;;7365968;19;20363;-70
2023/04/11 06:18:05;;;;;;;4.63;1.25;;;8.70;10.90;;;;;;7366128;19;20013;-71
2023/04/11 06:20:35;;;;;;;3.10;1.63;;;8.70;10.20;;;;;;7367075;19;20010;-69
2023/04/11 06:23:04;;;;;;;2.20;1.00;;;8.80;10.80;;;;;;7368325;19;20015;-70
2023/04/11 06:25:37;;;;;;;4.10;0.90;;;8.70;10.60;;;;;;7365227;19;20014;-70
2023/04/11 06:28:07;;;;;;;2.30;0.82;;;8.80;10.10;;;;;;7388036;19;20474;-70
2023/04/11 06:30:37;;;;;;;3.00;0.90;;;9.00;10.30;;;;;;7393398;19;20014;-71
2023/04/11 06:33:07;;;;;;;2.50;0.98;;;8.90;7.80;;;;;;7393279;19;20381;-70
2023/04/11 06:35:37;;;;;;;1.30;0.50;;;9.00;7.90;;;;;;7403176;19;20055;-70
2023/04/11 06:38:07;;;;;;;3.92;1.00;;;9.00;7.20;;;;;;7396272;19;20025;-67
2023/04/11 06:40:40;;;;;;;4.28;0.88;;;9.00;5.80;;;;;;7376490;19;20039;-70
2023/04/11 06:43:10;;;;;;;2.80;0.88;;;8.90;7.20;;;;;;7376401;19;20010;-69
2023/04/11 06:45:39;;;;;;;4.28;1.08;;;9.10;8.00;;;;;;7395426;19;20014;-70
2023/04/11 06:48:10;;;;;;;2.45;0.80;;;9.20;8.00;;;;;;7373187;19;20014;-69
2023/04/11 06:50:40;;;;;;;4.68;1.20;;;9.20;7.10;;;;;;7372857;19;20021;-70
2023/04/11 06:53:11;;;;;;;4.65;1.50;;;9.20;8.00;;;;;;7373813;19;20010;-70
2023/04/11 06:55:43;;;;;;;4.82;1.35;;;9.20;8.00;;;;;;7371920;19;20462;-70
2023/04/11 06:58:13;;;;;;;3.28;0.80;;;9.20;8.20;;;;;;7373534;19;20011;-71
2023/04/11 07:00:43;;;;;;;3.70;1.13;;;9.10;9.40;;;;;;7393476;19;20017;-71
2023/04/11 07:03:13;;;;;;;3.03;1.27;;;9.10;8.30;;;;;;7373640;19;20463;-70
2023/04/11 07:05:43;;;;;;;3.60;0.93;;;9.10;11.20;;;;;;7371365;19;20010;-70
2023/04/11 07:08:16;;;;;;;3.60;1.08;;;9.10;10.40;;;;;;7372260;19;20018;-70
2023/04/11 07:10:49;;;;;;;6.45;1.10;;;9.20;10.10;;;;;;7370957;19;20089;-71
2023/04/11 07:13:20;;;;;;;3.00;1.00;;;9.30;9.50;;;;;;7374578;19;20026;-70
2023/04/11 07:15:49;;;;;;;5.28;1.20;;;9.20;9.10;;;;;;7394472;19;20014;-71
2023/04/11 07:18:19;;;;;;;5.68;1.40;;;9.30;8.00;;;;;;7371676;19;20014;-70
2023/04/11 07:20:51;;;;;;;4.60;1.02;;;9.40;6.80;;;;;;7371514;19;20382;-70
2023/04/11 07:23:21;;;;;;;4.78;1.17;;;9.40;6.30;;;;;;7372082;19;20017;-70
2023/04/11 07:25:55;;;;;;;4.60;1.02;;;9.50;6.30;;;;;;7371857;19;20011;-69
2023/04/11 07:28:27;;;;;;;5.32;1.33;;;9.50;5.20;;;;;;7371878;19;20010;-71
2023/04/11 07:30:57;;;;;;;5.13;1.27;;;9.80;6.30;;;;;;7391711;19;20043;-70
2023/04/11 07:33:27;;;;;;;5.20;1.40;;;9.60;3.10;;;;;;7372298;19;20106;-69
2023/04/11 07:35:57;;;;;;;5.20;1.67;;;9.80;4.10;;;;;;7371191;19;20462;-70
2023/04/11 07:38:30;;;;;;;10.00;1.50;;;9.70;1.00;;;;;;7370315;19;20093;-70
2023/04/11 07:41:04;;;;;;;2.92;1.30;;;9.70;1.00;;;;;;7368637;19;20430;-69
2023/04/11 07:43:35;;;;;;;5.78;1.58;;;9.50;1.00;;;;;;7371568;19;20014;-72
2023/04/11 07:46:05;;;;;;;3.55;1.58;;;9.70;1.00;;;;;;7395036;19;20021;-70
2023/04/11 07:48:35;;;;;;;6.32;1.55;;;9.90;1.00;;;;;;7371928;19;20022;-70
2023/04/11 07:51:05;;;;;;;7.22;1.52;;;9.90;1.00;;;;;;7368609;19;20624;-69
2023/04/11 07:53:35;;;;;;;5.85;1.65;;;10.40;1.00;;;;;;7368855;19;20648;-69
2023/04/11 07:56:09;;;;;;;5.20;1.25;;;10.50;1.00;;;;;;7370823;19;20006;-70
2023/04/11 07:58:39;;;;;;;5.10;1.50;;;10.30;1.00;;;;;;7371367;19;20010;-70
2023/04/11 08:01:20;;;;;;;4.85;1.58;;;10.10;1.00;;;;;;7369217;19;20271;-69
2023/04/11 08:03:50;;;;;;;5.43;1.30;;;10.40;1.00;;;;;;7392184;19;20034;-70
2023/04/11 08:06:20;;;;;;;6.72;1.38;;;10.60;1.00;;;;;;7369828;19;20038;-70
2023/04/11 08:08:51;;;;;;;4.57;1.40;;;10.60;1.00;;;;;;7370014;19;20010;-71
2023/04/11 08:11:23;;;;;;;5.30;1.50;;;10.50;1.00;;;;;;7368600;19;20010;-69
2023/04/11 08:13:53;;;;;;;4.57;1.23;;;10.70;1.00;;;;;;7369717;19;20086;-69
2023/04/11 08:16:24;;;;;;;7.75;1.48;;;10.70;1.00;;;;;;7369606;19;20006;-71
2023/04/11 08:18:53;;;;;;;5.13;1.27;;;10.60;1.00;;;;;;7392519;19;20018;-70
2023/04/11 08:21:24;;;;;;;4.15;1.23;;;10.30;1.00;;;;;;7369720;19;20012;-70
2023/04/11 08:23:54;;;;;;;2.75;1.30;;;10.80;1.00;;;;;;7369495;19;20021;-70
2023/04/11 08:26:27;;;;;;;4.28;1.15;;;10.80;1.00;;;;;;7368446;19;20020;-70
2023/04/11 08:28:57;;;;;;;3.80;1.20;;;10.80;1.00;;;;;;7370009;19;20014;-70
2023/04/11 08:31:27;;;;;;;5.97;1.33;;;10.90;1.00;;;;;;7369193;19;20019;-71
2023/04/11 08:33:57;;;;;;;6.40;1.40;;;11.10;1.00;;;;;;7391956;19;20018;-70
2023/04/11 08:36:30;;;;;;;6.65;1.50;;;10.60;1.00;;;;;;7369349;19;20011;-70
2023/04/11 08:39:00;;;;;;;12.32;1.13;;;10.70;1.00;;;;;;7368749;19;20027;-72
2023/04/11 08:41:33;;;;;;;5.53;1.50;;;10.70;1.00;;;;;;7367291;19;20006;-70
2023/04/11 08:44:03;;;;;;;11.60;2.00;;;10.90;1.00;;;;;;7370957;19;20508;-70
2023/04/11 08:46:41;;;;;;;6.38;1.38;;;11.10;1.00;;;;;;7367195;19;20007;-69
2023/04/11 08:49:11;;;;;;;4.07;1.40;;;10.90;1.00;;;;;;7369767;19;20089;-70
2023/04/11 08:51:45;;;;;;;7.03;1.13;;;11.20;1.00;;;;;;7387426;19;20126;-70
2023/04/11 08:54:17;;;;;;;5.88;1.50;;;11.20;1.00;;;;;;7368070;19;20010;-70
2023/04/11 08:56:49;;;;;;;3.42;1.30;;;11.00;1.00;;;;;;7367502;19;20017;-70
2023/04/11 08:59:20;;;;;;;3.85;0.98;;;11.40;1.00;;;;;;7368181;19;20069;-70
2023/04/11 09:01:50;;;;;;;5.25;0.90;;;11.40;1.00;;;;;;7368761;19;20014;-69
2023/04/11 09:04:20;;;;;;;6.35;1.60;;;10.90;1.00;;;;;;7369518;19;20017;-71
2023/04/11 09:06:58;;;;;;;4.50;1.15;;;11.20;1.00;;;;;;7390063;19;20015;-69
2023/04/11 09:09:31;;;;;;;4.10;1.40;;;11.40;1.00;;;;;;7366966;19;20015;-71
2023/04/11 09:12:04;;;;;;;5.22;1.65;;;11.20;1.00;;;;;;7367201;19;20014;-70
2023/04/11 09:14:34;;;;;;;4.50;1.38;;;11.30;1.00;;;;;;7367464;19;20014;-70
2023/04/11 09:17:12;;;;;;;4.97;1.52;;;11.30;1.00;;;;;;7365834;19;20031;-69
2023/04/11 09:19:43;;;;;;;4.75;1.63;;;11.50;1.00;;;;;;7366311;19;20015;-70
2023/04/11 09:22:17;;;;;;;5.68;1.38;;;11.30;1.00;;;;;;7368725;19;20026;-71
2023/04/11 09:25:02;;;;;;;6.80;1.27;;;11.20;1.00;;;;;;7388897;19;20494;-70
2023/04/11 09:27:35;;;;;;;5.75;1.52;;;10.30;1.00;;;;;;7367309;19;20749;-70
2023/04/11 09:30:06;;;;;;;8.93;2.17;;;10.40;1.00;;;;;;7366472;19;20010;-71
2023/04/11 09:32:36;;;;;;;9.40;1.40;;;10.70;1.00;;;;;;7367420;19;20052;-70
2023/04/11 09:35:14;;;;;;;4.35;1.35;;;11.00;1.00;;;;;;7366471;19;20012;-71
2023/04/11 09:37:46;;;;;;;4.68;1.30;;;10.90;1.00;;;;;;7366318;19;20021;-70
2023/04/11 09:40:17;;;;;;;4.93;1.58;;;10.70;1.00;;;;;;7367577;19;20094;-71
2023/04/11 09:42:59;;;;;;;6.15;1.08;;;11.20;1.00;;;;;;7389530;19;20016;-71
2023/04/11 09:45:30;;;;;;;8.15;1.80;;;11.60;1.00;;;;;;7366968;19;20017;-70
2023/04/11 09:48:14;;;;;;;8.43;1.77;;;11.30;1.00;;;;;;7366652;19;20059;-69
2023/04/11 09:50:45;;;;;;;7.18;1.52;;;11.00;1.00;;;;;;7366220;19;20011;-72
2023/04/11 09:53:15;;;;;;;4.68;1.75;;;10.80;1.00;;;;;;7367287;19;20007;-70
2023/04/11 09:55:45;;;;;;;10.13;2.17;;;10.70;1.00;;;;;;7364427;19;20018;-72
2023/04/11 09:58:18;;;;;;;7.47;1.50;;;10.70;1.00;;;;;;7368031;19;20010;-71
2023/04/11 10:00:49;;;;;;;6.03;1.13;;;11.10;1.00;;;;;;7387029;19;20031;-70
2023/04/11 10:03:22;;;;;;;6.75;1.50;;;10.90;1.00;;;;;;7366290;19;20454;-70
2023/04/11 10:05:55;;;;;;;6.95;1.27;;;11.10;1.00;;;;;;7366717;19;20021;-70
2023/04/11 10:08:31;;;;;;;5.05;1.17;;;11.70;1.00;;;;;;7365679;19;20007;-71
2023/04/11 10:11:01;;;;;;;4.68;1.05;;;12.30;1.00;;;;;;7365241;19;20014;-70
2023/04/11 10:13:44;;;;;;;3.08;0.85;;;12.20;1.00;;;;;;7366783;19;20121;-72
2023/04/11 10:16:15;;;;;;;5.05;1.25;;;12.00;1.00;;;;;;7366769;19;20043;-71
2023/04/11 10:19:15;;;;;;;2.80;1.13;;;12.40;1.00;;;;;;7388881;19;20015;-70
2023/04/11 10:21:45;;;;;;;4.53;1.40;;;11.60;1.00;;;;;;7368167;19;20002;-73
2023/04/11 10:24:16;;;;;;;3.13;0.90;;;12.00;1.00;;;;;;7366078;19;20376;-71
2023/04/11 10:26:54;;;;;;;2.92;0.85;;;12.00;1.00;;;;;;7365926;19;20018;-70
2023/04/11 10:29:52;;;;;;;5.90;1.10;;;12.20;1.00;;;;;;7364790;19;20010;-70
2023/04/11 10:32:24;;;;;;;5.90;1.27;;;12.20;1.00;;;;;;7365897;19;20019;-72
2023/04/11 10:35:33;;;;;;;3.83;1.00;;;11.90;1.00;;;;;;7364123;19;20041;-69
2023/04/11 10:38:03;;;;;;;3.67;1.00;;;11.70;1.00;;;;;;7366487;19;20022;-71
2023/04/11 10:40:33;;;;;;;3.55;1.20;;;12.20;1.00;;;;;;7363900;19;20021;-71
2023/04/11 10:43:21;;;;;;;6.20;1.60;;;12.00;1.00;;;;;;7389075;19;20018;-70
2023/04/11 10:46:19;;;;;;;3.35;1.00;;;12.20;1.00;;;;;;7365760;19;20014;-71
2023/04/11 10:49:00;;;;;;;5.22;1.30;;;12.50;1.00;;;;;;7365630;19;20018;-69
2023/04/11 10:51:31;;;;;;;3.55;1.40;;;12.10;1.00;;;;;;7352468;19;20048;-68
2023/04/11 10:54:01;;;;;;;5.72;1.33;;;12.70;1.00;;;;;;7356194;19;20496;-69
2023/04/11 10:56:56;;;;;;;2.92;1.27;;;13.00;1.00;;;;;;7363400;19;20022;-70
2023/04/11 10:59:56;;;;;;;6.37;1.43;;;12.10;1.00;;;;;;7360266;19;20015;-69
2023/04/11 11:02:39;;;;;;;4.75;1.42;;;12.10;1.00;;;;;;7360089;19;20018;-69
2023/04/11 11:05:25;;;;;;;3.83;1.10;;;12.60;1.00;;;;;;7360789;19;20011;-68
2023/04/11 11:07:55;;;;;;;4.63;1.40;;;12.60;1.00;;;;;;7364054;19;20051;-68
2023/04/11 11:10:44;;;;;;;5.05;1.23;;;12.60;1.00;;;;;;7359067;19;20018;-69
2023/04/11 11:13:17;;;;;;;5.60;1.30;;;12.80;1.00;;;;;;7360605;19;20021;-68
2023/04/11 11:15:51;;;;;;;6.72;1.15;;;13.30;1.00;;;;;;7390489;19;20358;-69
2023/04/11 11:18:24;;;;;;;8.80;3.20;;;13.60;1.00;;;;;;7369379;19;20010;-69
2023/04/11 11:20:57;;;;;;;3.42;1.02;;;13.10;1.00;;;;;;7366509;19;20018;-69
2023/04/11 11:23:27;;;;;;;4.45;1.00;;;13.70;1.00;;;;;;7368597;19;20478;-69
2023/04/11 11:25:58;;;;;;;8.85;1.45;;;12.90;1.00;;;;;;7367963;19;20011;-69
2023/04/11 11:28:28;;;;;;;4.60;1.30;;;13.40;1.00;;;;;;7368080;19;20032;-68
2023/04/11 11:30:59;;;;;;;5.43;1.42;;;13.10;1.00;;;;;;7389526;19;20019;-70
2023/04/11 11:33:31;;;;;;;3.22;1.10;;;13.70;1.00;;;;;;7368772;19;20030;-69
2023/04/11 11:36:04;;;;;;;1.58;0.85;;;13.90;1.00;;;;;;7368108;19;20018;-69
2023/04/11 11:38:34;;;;;;;3.90;1.40;;;14.00;1.00;;;;;;7369811;19;20130;-69
2023/04/11 11:41:05;;;;;;;6.78;1.42;;;13.90;1.00;;;;;;7368813;19;20671;-70
2023/04/11 11:43:39;;;;;;;9.13;1.45;;;13.40;1.00;;;;;;7369900;19;20010;-68
2023/04/11 11:46:13;;;;;;;8.07;1.83;;;13.40;1.00;;;;;;7370002;19;20072;-69
2023/04/11 11:48:59;;;;;;;;;;;13.80;1.00;;;;;;7393226;19;20035;-70
2023/04/11 11:51:42;;;;;;;3.88;1.27;;;13.90;1.00;;;;;;7369787;19;19911;-69
2023/04/11 11:54:13;;;;;;;3.53;1.10;;;13.00;1.00;;;;;;7368535;19;20009;-69
2023/04/11 11:56:50;;;;;;;4.07;1.40;;;13.70;1.00;;;;;;7369004;19;20022;-70
2023/04/11 11:59:28;;;;;;;5.40;1.65;;;13.90;1.00;;;;;;7367543;19;20031;-69
2023/04/11 12:01:58;;;;;;;4.40;1.05;;;13.80;1.00;;;;;;7369732;19;20014;-69
2023/04/11 12:04:32;;;;;;;6.05;1.33;;;13.40;1.00;;;;;;7369967;19;20024;-67
2023/04/11 12:07:10;;;;;;;3.55;1.17;;;13.50;1.00;;;;;;7390182;19;20007;-68
2023/04/11 12:09:41;;;;;;;5.57;1.77;;;12.90;1.00;;;;;;7369624;19;20027;-68
2023/04/11 12:12:11;;;;;;;6.47;1.33;;;13.70;1.00;;;;;;7369677;19;20014;-68
2023/04/11 12:14:41;;;;;;;3.85;1.50;;;13.50;1.00;;;;;;7367315;19;20022;-67
2023/04/11 12:17:11;;;;;;;4.90;1.80;;;13.90;1.00;;;;;;7369522;19;20359;-68
2023/04/11 12:19:46;;;;;;;3.97;1.25;;;14.00;1.00;;;;;;7368428;19;20017;-69
2023/04/11 12:22:16;;;;;;;5.00;1.70;;;13.80;1.00;;;;;;7370509;19;20106;-68
2023/04/11 12:24:46;;;;;;;7.20;1.58;;;13.60;1.00;;;;;;7389644;19;20482;-68
2023/04/11 12:27:16;;;;;;;4.00;1.45;;;13.40;1.00;;;;;;7360975;19;20013;-69
2023/04/11 12:29:46;;;;;;;5.63;1.13;;;13.20;1.00;;;;;;7365068;19;20034;-69
2023/04/11 12:32:16;;;;;;;5.50;1.17;;;13.10;1.00;;;;;;7369472;19;20379;-68
2023/04/11 12:34:49;;;;;;;4.60;1.65;;;13.10;1.00;;;;;;7356299;19;20091;-69
2023/04/11 12:37:19;;;;;;;4.05;1.50;;;13.40;1.00;;;;;;7370349;19;20655;-68
2023/04/11 12:39:48;;;;;;;3.97;1.20;;;13.70;1.00;;;;;;7390658;19;20042;-69
2023/04/11 12:42:19;;;;;;;4.85;1.17;;;13.90;1.00;;;;;;7366479;19;20046;-69
2023/04/11 12:44:55;;;;;;;3.97;1.20;;;13.70;1.00;;;;;;7367802;19;20011;-69
2023/04/11 12:47:25;;;;;;;4.13;1.20;;;13.80;1.00;;;;;;7368949;19;20076;-70
2023/04/11 12:49:58;;;;;;;4.65;1.35;;;13.30;1.00;;;;;;7363190;19;20038;-70
2023/04/11 12:52:28;;;;;;;4.55;1.20;;;13.60;1.00;;;;;;7371253;19;20018;-69
2023/04/11 12:54:58;;;;;;;5.22;1.33;;;13.70;1.00;;;;;;7384752;19;20011;-69
2023/04/11 12:57:28;;;;;;;5.32;1.38;;;14.00;1.00;;;;;;7364649;19;20023;-69
2023/04/11 12:59:58;;;;;;;5.10;1.33;;;13.80;1.00;;;;;;7365947;19;20018;-69
2023/04/11 13:02:28;;;;;;;3.22;1.20;;;13.80;1.00;;;;;;7364414;19;20006;-69
2023/04/11 13:05:10;;;;;;;3.95;1.50;;;13.80;1.00;;;;;;7363580;19;20019;-69
2023/04/11 13:07:40;;;;;;;7.10;1.20;;;13.40;1.00;;;;;;7367228;19;20006;-69
2023/04/11 13:10:12;;;;;;;3.63;1.10;;;13.80;1.00;;;;;;7365307;19;20011;-69
2023/04/11 13:12:43;;;;;;;6.88;1.25;;;13.60;1.00;;;;;;7386895;19;20022;-71
2023/04/11 13:15:15;;;;;;;4.63;1.20;;;13.60;1.00;;;;;;7359289;19;20038;-69
2023/04/11 13:17:46;;;;;;;3.85;0.90;;;13.30;1.00;;;;;;7363714;19;20019;-70
2023/04/11 13:20:18;;;;;;;4.45;1.30;;;13.60;1.00;;;;;;7363684;19;20006;-70
2023/04/11 13:22:48;;;;;;;18.90;1.67;;;13.70;1.00;;;;;;7366397;19;20019;-69